Time;durP1;ratioP1;P1;durP2;ratioP2;P2;SDS_P1;SDS_P2;PMS_P1;PMS_P2;Temp;Humidity;BMP_temperature;BMP_pressure;BME280_temperature;BME280_humidity;BME280_pressure;Samples;Min_cycle;Max_cycle;Signal;HPM_P1;HPM_P2
2023/02/14 00:02:16;;;;;;;39.22;18.42;;;;;;;12.67;46.36;103432.28;5111790;27;99378;-70
2023/02/14 00:04:44;;;;;;;39.30;19.40;;;;;;;12.22;47.07;103436.72;5114377;27;99689;-69
2023/02/14 00:07:11;;;;;;;40.55;18.33;;;;;;;12.52;46.69;103429.66;5110446;27;97058;-70
2023/02/14 00:09:38;;;;;;;43.65;19.77;;;;;;;12.58;46.73;103429.66;5108432;27;97272;-71
2023/02/14 00:12:06;;;;;;;40.40;18.77;;;;;;;12.46;46.57;103429.66;5115200;27;99110;-70
2023/02/14 00:17:18;;;;;;;38.75;19.92;;;;;;;12.44;46.43;103426.13;5109474;27;96909;-70
2023/02/14 00:19:44;;;;;;;37.42;18.60;;;;;;;12.25;46.51;103434.09;5108808;27;96910;-69
2023/02/14 00:22:11;;;;;;;40.72;18.88;;;;;;;11.79;47.56;103434.94;5106627;27;99298;-71
2023/02/14 00:24:37;;;;;;;39.70;18.38;;;;;;;11.80;47.58;103431.41;5098865;27;98063;-69
2023/02/14 00:27:04;;;;;;;42.50;18.45;;;;;;;11.92;47.48;103431.41;5108891;27;97390;-69
2023/02/14 00:29:32;;;;;;;39.60;18.77;;;;;;;12.16;47.05;103427.91;5107038;27;97261;-69
2023/02/14 00:32:00;;;;;;;44.47;19.67;;;;;;;11.82;47.77;103432.28;5106475;27;99323;-69
2023/02/14 00:34:27;;;;;;;37.85;17.90;;;;;;;12.06;47.05;103424.38;5103750;27;99142;-71
2023/02/14 00:36:54;;;;;;;42.90;19.25;;;;;;;12.18;46.68;103427.03;5109987;27;97172;-69
2023/02/14 00:39:21;;;;;;;39.80;18.75;;;;;;;12.43;46.31;103419.06;5109539;27;97988;-70
2023/02/14 00:41:47;;;;;;;39.42;17.75;;;;;;;12.37;46.40;103415.53;5112469;27;101239;-70
2023/02/14 00:44:14;;;;;;;39.90;18.23;;;;;;;12.55;46.30;103424.34;5108577;27;100597;-70
2023/02/14 00:46:41;;;;;;;42.15;19.65;;;;;;;12.52;46.43;103419.06;5108785;27;97220;-70
2023/02/14 00:49:09;;;;;;;37.90;17.67;;;;;;;12.11;46.63;103427.91;5102198;27;97197;-70
2023/02/14 00:51:36;;;;;;;38.40;18.60;;;;;;;11.98;47.34;103431.44;5113764;27;99062;-71
2023/02/14 00:54:02;;;;;;;39.50;18.08;;;;;;;12.00;47.76;103439.38;5109966;27;101142;-69
2023/02/14 00:56:29;;;;;;;38.40;18.58;;;;;;;11.74;47.79;103424.34;5100295;27;98488;-70
2023/02/14 00:58:55;;;;;;;39.58;18.23;;;;;;;11.91;48.01;103419.06;5111187;27;97146;-69
2023/02/14 01:01:22;;;;;;;42.28;19.08;;;;;;;11.74;48.27;103421.69;5114425;27;102199;-70
2023/02/14 01:03:48;;;;;;;46.00;19.05;;;;;;;11.72;47.78;103417.22;5098919;27;99065;-70
2023/02/14 01:06:16;;;;;;;42.03;17.88;;;;;;;11.73;48.48;103414.59;5108796;27;97419;-70
2023/02/14 01:08:43;;;;;;;41.50;19.25;;;;;;;11.86;47.80;103421.69;5104031;27;97256;-70
2023/02/14 01:11:11;;;;;;;43.92;19.55;;;;;;;11.65;47.75;103408.38;5112193;27;98963;-69
2023/02/14 01:13:37;;;;;;;40.35;18.45;;;;;;;11.49;48.68;103410.09;5108561;27;99095;-70
2023/02/14 01:16:07;;;;;;;36.83;18.35;;;;;;;11.52;48.43;103407.47;5117855;27;97193;-70
2023/02/14 01:18:34;;;;;;;41.13;18.13;;;;;;;11.42;48.67;103405.66;5105333;27;97057;-70
2023/02/14 01:21:10;;;;;;;39.63;17.73;;;;;;;11.80;47.97;103404.91;5103824;27;99077;-69
2023/02/14 01:23:38;;;;;;;42.13;19.23;;;;;;;11.78;47.91;103401.38;5105694;27;98685;-70
2023/02/14 01:26:07;;;;;;;41.28;17.70;;;;;;;11.72;47.93;103403.97;5111185;27;96754;-69
2023/02/14 01:28:34;;;;;;;44.53;19.33;;;;;;;11.71;48.36;103391.59;5106183;27;99312;-70
2023/02/14 01:31:07;;;;;;;43.50;18.90;;;;;;;11.36;49.33;103389.75;5110273;27;99895;-70
2023/02/14 01:33:33;;;;;;;45.03;20.00;;;;;;;11.84;47.95;103398.72;5107775;27;98620;-70
2023/02/14 01:36:00;;;;;;;43.90;19.15;;;;;;;11.80;47.82;103400.50;5113733;27;96799;-70
2023/02/14 01:38:26;;;;;;;38.90;18.08;;;;;;;12.04;47.71;103393.44;5108436;27;96945;-69
2023/02/14 01:40:54;;;;;;;40.67;17.80;;;;;;;12.22;46.70;103393.44;5114320;27;98931;-70
2023/02/14 01:43:21;;;;;;;40.33;18.33;;;;;;;12.08;46.13;103385.47;5102171;27;98747;-70
2023/02/14 01:45:47;;;;;;;44.80;20.02;;;;;;;12.23;46.08;103389.91;5104351;27;96959;-69
2023/02/14 01:48:15;;;;;;;48.05;20.17;;;;;;;12.13;46.37;103386.38;5109701;27;97099;-69
2023/02/14 01:50:44;;;;;;;44.25;18.75;;;;;;;12.28;46.27;103373.09;5112009;27;98953;-70
2023/02/14 01:53:15;;;;;;;45.90;19.83;;;;;;;12.34;46.13;103382.81;5103532;27;98969;-70
2023/02/14 01:55:45;;;;;;;44.90;20.10;;;;;;;11.95;46.60;103378.41;5103549;27;96930;-70
2023/02/14 01:58:17;;;;;;;42.53;19.85;;;;;;;12.14;46.53;103376.66;5109122;27;97882;-69
2023/02/14 02:00:59;;;;;;;41.95;18.67;;;;;;;12.17;46.53;103382.84;5107905;27;99053;-70
2023/02/14 02:03:32;;;;;;;43.50;19.80;;;;;;;12.13;46.41;103386.38;5109449;27;99181;-70
2023/02/14 02:06:06;;;;;;;47.78;19.75;;;;;;;12.30;45.88;103381.94;5113169;27;99174;-71
2023/02/14 02:08:37;;;;;;;43.00;19.73;;;;;;;12.35;45.77;103376.63;5109422;27;97319;-70
2023/02/14 02:11:03;;;;;;;40.40;18.25;;;;;;;12.30;45.86;103381.94;5107405;27;99296;-71
2023/02/14 02:13:32;;;;;;;42.40;19.20;;;;;;;12.18;46.12;103381.97;5103885;27;99327;-70
2023/02/14 02:16:13;;;;;;;40.92;19.85;;;;;;;12.26;45.86;103384.63;5103816;27;98025;-69
2023/02/14 02:18:52;;;;;;;40.85;19.75;;;;;;;12.06;46.70;103384.63;5110841;27;96774;-71
2023/02/14 02:21:55;;;;;;;45.17;19.55;;;;;;;12.12;46.86;103387.28;5106834;27;99074;-70
2023/02/14 02:24:29;;;;;;;48.67;20.20;;;;;;;11.95;47.22;103384.59;5089345;27;99198;-71
2023/02/14 02:27:24;;;;;;;44.80;19.52;;;;;;;11.94;47.30;103387.28;5100045;27;98721;-70
2023/02/14 02:30:28;;;;;;;43.03;20.27;;;;;;;11.92;47.71;103389.03;5106538;27;97640;-70
2023/02/14 02:33:21;;;;;;;38.13;18.40;;;;;;;12.16;46.38;103391.66;5107335;27;100017;-69
2023/02/14 02:36:09;;;;;;;44.60;20.75;;;;;;;12.05;46.76;103389.91;5109806;27;98885;-69
2023/02/14 02:38:55;;;;;;;43.33;19.58;;;;;;;11.84;47.50;103386.38;5105501;27;97837;-69
2023/02/14 02:41:32;;;;;;;39.97;18.35;;;;;;;11.77;47.68;103383.69;5114125;27;96825;-70
2023/02/14 02:44:09;;;;;;;42.47;19.48;;;;;;;11.69;48.23;103385.41;5109672;27;99192;-70
2023/02/14 02:46:48;;;;;;;45.08;19.73;;;;;;;12.01;47.91;103386.41;5106692;27;98954;-70
2023/02/14 02:55:09;;;;;;;40.97;19.73;;;;;;;11.65;48.41;103384.53;5101098;27;97195;-72
2023/02/14 02:57:39;;;;;;;39.58;19.70;;;;;;;11.75;48.09;103389.00;5109359;27;98292;-71
2023/02/14 03:00:10;;;;;;;42.78;19.58;;;;;;;11.66;48.59;103380.13;5106378;27;96885;-70
2023/02/14 03:05:22;;;;;;;36.42;17.23;;;;;;;11.61;48.67;103376.59;5106532;27;98449;-70
2023/02/14 03:07:49;;;;;;;39.55;19.90;;;;;;;11.86;48.25;103379.31;5109876;27;98842;-69
2023/02/14 03:10:19;;;;;;;41.75;19.55;;;;;;;11.78;47.88;103380.16;5110843;27;97165;-70
2023/02/14 03:13:06;;;;;;;42.30;19.60;;;;;;;11.47;48.96;103374.81;5114331;27;97533;-70
2023/02/14 03:15:44;;;;;;;;;;;;;;;11.82;48.48;103380.16;5106926;27;99277;-71
2023/02/14 03:18:26;;;;;;;42.08;18.58;;;;;;;11.96;48.70;103374.88;5116317;27;98158;-70
2023/02/14 03:20:54;;;;;;;39.42;18.67;;;;;;;11.99;47.84;103380.19;5110966;27;96742;-70
2023/02/14 03:23:27;;;;;;;39.95;18.95;;;;;;;11.70;48.36;103381.88;5104406;27;97428;-72
2023/02/14 03:26:05;;;;;;;38.60;17.95;;;;;;;11.67;48.38;103381.91;5111829;27;98829;-70
2023/02/14 03:28:41;;;;;;;40.13;18.35;;;;;;;11.67;48.52;103379.25;5104701;27;99075;-71
2023/02/14 03:31:18;;;;;;;38.22;18.98;;;;;;;11.59;48.72;103377.47;5117846;27;97015;-71
2023/02/14 03:33:52;;;;;;;39.40;18.20;;;;;;;11.61;48.80;103373.94;5113417;27;98391;-70
2023/02/14 03:36:21;;;;;;;38.88;18.77;;;;;;;11.76;48.76;103372.22;5112155;27;99244;-70
2023/02/14 03:38:56;;;;;;;38.58;19.23;;;;;;;11.73;48.67;103374.84;5105849;27;99791;-71
2023/02/14 03:41:27;;;;;;;41.65;18.63;;;;;;;11.61;48.90;103372.19;5110954;27;97253;-71
2023/02/14 03:43:57;;;;;;;40.83;18.63;;;;;;;11.61;49.37;103363.34;5114930;27;96803;-70
2023/02/14 03:46:27;;;;;;;40.60;19.02;;;;;;;11.69;49.18;103377.47;5114876;27;99197;-71
2023/02/14 03:48:58;;;;;;;40.08;19.63;;;;;;;11.50;49.59;103377.44;5108287;27;97924;-69
2023/02/14 03:51:26;;;;;;;43.50;19.30;;;;;;;11.77;49.17;103379.28;5110951;27;96950;-69
2023/02/14 03:53:57;;;;;;;42.53;20.00;;;;;;;11.64;48.96;103376.59;5108741;27;97117;-70
2023/02/14 03:56:32;;;;;;;35.83;18.42;;;;;;;11.85;48.12;103379.31;5111750;27;99083;-70
2023/02/14 03:59:05;;;;;;;35.95;18.33;;;;;;;11.78;47.79;103372.22;5113633;27;98801;-70
2023/02/14 04:01:36;;;;;;;40.85;19.63;;;;;;;11.58;49.24;103369.50;5114997;27;96820;-69
2023/02/14 04:04:06;;;;;;;42.55;19.70;;;;;;;11.56;49.46;103368.63;5110831;27;96862;-70
2023/02/14 04:06:32;;;;;;;42.88;20.15;;;;;;;11.52;49.51;103373.03;5109097;27;99455;-70
2023/02/14 04:09:00;;;;;;;38.13;18.92;;;;;;;11.56;49.34;103364.22;5114760;27;97622;-71
2023/02/14 04:11:27;;;;;;;43.25;20.60;;;;;;;11.57;48.86;103367.75;5112536;27;96789;-71
2023/02/14 04:13:53;;;;;;;41.22;19.67;;;;;;;11.70;48.74;103366.88;5108026;27;96860;-70
2023/02/14 04:16:20;;;;;;;36.38;19.67;;;;;;;11.57;48.52;103371.28;5106937;27;99128;-70
2023/02/14 04:21:45;;;;;;;39.20;20.75;;;;;;;11.43;49.38;103361.53;5022111;27;96896;-70
2023/02/14 04:24:12;;;;;;;39.17;20.00;;;;;;;11.64;48.54;103363.34;5020628;27;97006;-69
2023/02/14 04:26:52;;;;;;;39.50;20.05;;;;;;;11.34;48.88;103358.88;5055619;27;97727;-71
2023/02/14 04:29:20;;;;;;;38.50;19.42;;;;;;;11.54;48.94;103366.00;5111493;27;98050;-71
2023/02/14 04:31:46;;;;;;;39.05;20.08;;;;;;;11.34;49.15;103364.16;5105561;27;96844;-70
2023/02/14 04:34:13;;;;;;;36.10;19.95;;;;;;;11.33;49.19;103362.41;5107174;27;96808;-72
2023/02/14 04:36:39;;;;;;;42.38;20.80;;;;;;;11.58;48.92;103367.75;5113931;27;98955;-69
2023/02/14 04:39:06;;;;;;;44.58;21.95;;;;;;;11.55;48.78;103362.44;5114775;27;99395;-70
2023/02/14 04:41:33;;;;;;;40.30;20.58;;;;;;;11.47;48.73;103368.63;5112678;27;96831;-70
2023/02/14 04:44:00;;;;;;;39.60;18.85;;;;;;;11.58;48.76;103359.81;5104027;27;98693;-70
2023/02/14 04:46:26;;;;;;;35.95;19.52;;;;;;;11.64;48.36;103350.09;5111678;27;101696;-70
2023/02/14 04:48:52;;;;;;;38.85;19.20;;;;;;;11.52;48.77;103350.97;5108728;27;101710;-70
2023/02/14 04:51:19;;;;;;;38.10;20.98;;;;;;;11.82;48.16;103360.75;5110441;27;96761;-70
2023/02/14 04:53:45;;;;;;;45.40;22.67;;;;;;;11.65;48.38;103349.22;5109752;27;97334;-70
2023/02/14 04:56:11;;;;;;;39.95;20.98;;;;;;;12.05;47.59;103352.81;5112717;27;98865;-70
2023/02/14 04:58:39;;;;;;;42.67;20.63;;;;;;;12.00;47.44;103354.59;5112772;27;99073;-70
2023/02/14 05:01:05;;;;;;;38.42;20.55;;;;;;;11.80;48.06;103357.22;5113519;27;97397;-71
2023/02/14 05:03:32;;;;;;;39.97;20.55;;;;;;;11.73;48.23;103350.13;5106784;27;97706;-70
2023/02/14 05:05:58;;;;;;;41.80;20.45;;;;;;;11.90;47.98;103351.91;5111640;27;99524;-71
2023/02/14 05:08:25;;;;;;;39.35;21.38;;;;;;;11.63;48.37;103343.91;5111132;27;99707;-70
2023/02/14 05:10:51;;;;;;;40.40;20.70;;;;;;;11.70;48.35;103356.28;5108213;27;96804;-70
2023/02/14 05:13:17;;;;;;;41.00;20.35;;;;;;;12.04;47.27;103341.31;5108158;27;97045;-70
2023/02/14 05:15:45;;;;;;;39.85;20.95;;;;;;;12.08;47.51;103343.06;5108799;27;99027;-71
2023/02/14 05:18:12;;;;;;;38.78;21.75;;;;;;;11.77;48.39;103349.25;5108851;27;99096;-71
2023/02/14 05:20:38;;;;;;;38.13;20.15;;;;;;;11.85;48.15;103344.88;5118864;27;96702;-70
2023/02/14 05:23:06;;;;;;;42.95;21.33;;;;;;;11.77;48.84;103338.66;5108745;27;97136;-71
2023/02/14 05:25:32;;;;;;;45.05;20.50;;;;;;;11.56;49.51;103342.13;5110367;27;99612;-71
2023/02/14 05:27:58;;;;;;;36.13;18.65;;;;;;;11.51;48.49;103333.31;5101079;27;99159;-70
2023/02/14 05:30:26;;;;;;;32.05;18.88;;;;;;;11.89;47.67;103331.59;5113185;27;96749;-70
2023/02/14 05:32:54;;;;;;;31.35;17.58;;;;;;;12.08;47.18;103328.97;5104090;27;98491;-71
2023/02/14 05:35:20;;;;;;;39.63;19.02;;;;;;;11.95;47.61;103330.72;5119583;27;99572;-69
2023/02/14 05:37:47;;;;;;;35.95;17.92;;;;;;;11.85;47.73;103339.56;5106573;27;101624;-70
2023/02/14 05:40:15;;;;;;;35.83;19.17;;;;;;;11.74;48.17;103334.28;5109085;27;96663;-70
2023/02/14 05:42:41;;;;;;;32.88;18.35;;;;;;;11.86;47.88;103338.69;5108203;27;97033;-70
2023/02/14 05:45:09;;;;;;;32.78;18.10;;;;;;;11.23;49.35;103335.00;5108131;27;98840;-70
2023/02/14 05:47:35;;;;;;;36.10;18.35;;;;;;;11.34;49.32;103333.28;5104621;27;98861;-71
2023/02/14 05:50:08;;;;;;;35.25;18.92;;;;;;;11.29;49.39;103332.38;5103026;27;96789;-72
2023/02/14 05:52:35;;;;;;;40.17;19.67;;;;;;;11.56;48.87;103326.25;5113658;27;97775;-72
2023/02/14 05:55:03;;;;;;;37.03;20.55;;;;;;;11.56;49.04;103329.78;5109497;27;98136;-72
2023/02/14 05:57:31;;;;;;;40.83;20.00;;;;;;;11.37;49.02;103330.63;5113170;27;97719;-71
2023/02/14 05:59:59;;;;;;;39.50;20.52;;;;;;;11.82;48.76;103339.53;5112742;27;96902;-72
2023/02/14 06:02:30;;;;;;;41.30;20.75;;;;;;;11.91;48.17;103318.38;5110242;27;97198;-71
2023/02/14 06:04:57;;;;;;;44.55;20.83;;;;;;;11.85;48.44;103329.84;5101515;27;99967;-72
2023/02/14 06:07:25;;;;;;;37.80;19.98;;;;;;;12.00;47.81;103328.97;5107214;27;98195;-70
2023/02/14 06:09:52;;;;;;;39.30;20.15;;;;;;;11.93;47.86;103329.84;5113124;27;96844;-71
2023/02/14 06:12:18;;;;;;;35.63;18.73;;;;;;;11.84;48.30;103337.78;5112743;27;96836;-72
2023/02/14 06:14:45;;;;;;;35.65;18.23;;;;;;;11.90;48.00;103335.13;5104748;27;99242;-70
2023/02/14 06:17:11;;;;;;;35.03;19.10;;;;;;;11.93;47.80;103333.38;5105476;27;101510;-70
2023/02/14 06:19:37;;;;;;;37.78;18.20;;;;;;;11.76;48.04;103334.25;5113553;27;96951;-71
2023/02/14 06:22:04;;;;;;;39.10;19.05;;;;;;;11.77;48.13;103336.91;5110186;27;96828;-71
2023/02/14 06:24:32;;;;;;;35.03;17.65;;;;;;;11.76;48.58;103344.84;5100255;27;99039;-71
2023/02/14 06:26:58;;;;;;;35.97;17.52;;;;;;;11.59;49.12;103337.75;5095114;27;98789;-70
2023/02/14 06:29:25;;;;;;;32.70;19.02;;;;;;;11.56;48.89;103336.84;5095831;27;97128;-70
2023/02/14 06:31:51;;;;;;;35.60;18.55;;;;;;;11.61;48.69;103343.06;5102556;27;96953;-71
2023/02/14 06:34:18;;;;;;;36.17;18.08;;;;;;;11.62;48.62;103336.00;5099986;27;99104;-70
2023/02/14 06:36:48;;;;;;;32.58;18.65;;;;;;;11.52;48.84;103340.38;5112816;27;97922;-72
2023/02/14 06:39:15;;;;;;;39.25;18.27;;;;;;;11.85;48.38;103337.81;5112185;27;96695;-70
2023/02/14 06:41:42;;;;;;;33.15;17.95;;;;;;;11.58;48.99;103333.31;5116321;27;96926;-70
2023/02/14 06:44:12;;;;;;;34.63;18.33;;;;;;;11.70;48.44;103340.41;5109220;27;98073;-72
2023/02/14 06:46:38;;;;;;;32.78;17.38;;;;;;;11.90;47.94;103329.84;5106431;27;98568;-70
2023/02/14 06:49:05;;;;;;;35.55;19.95;;;;;;;11.63;48.49;103337.72;5108530;27;97849;-70
2023/02/14 06:51:31;;;;;;;36.35;18.27;;;;;;;11.86;48.29;103344.88;5110461;27;96823;-70
2023/02/14 06:53:58;;;;;;;36.38;19.70;;;;;;;11.70;48.31;103334.22;5110956;27;99203;-71
2023/02/14 06:56:24;;;;;;;36.78;18.95;;;;;;;11.91;48.13;103335.16;5105623;27;101012;-71
2023/02/14 06:58:52;;;;;;;37.88;19.08;;;;;;;11.76;48.10;103339.53;5109015;27;99476;-69
2023/02/14 07:01:18;;;;;;;34.90;18.98;;;;;;;11.74;48.39;103346.63;5109708;27;99181;-70
2023/02/14 07:03:45;;;;;;;38.97;20.00;;;;;;;11.56;48.92;103337.72;5114522;27;98866;-69
2023/02/14 07:06:11;;;;;;;33.25;17.90;;;;;;;11.72;48.22;103337.75;5113511;27;97881;-71
2023/02/14 07:08:37;;;;;;;38.33;19.65;;;;;;;11.63;48.64;103335.09;5101739;27;97485;-70
2023/02/14 07:11:04;;;;;;;35.47;19.00;;;;;;;11.72;48.30;103335.09;5114861;27;97156;-71
2023/02/14 07:13:30;;;;;;;36.85;18.25;;;;;;;11.53;49.05;103337.75;5116714;27;100926;-71
2023/02/14 07:15:58;;;;;;;37.63;18.83;;;;;;;11.52;48.75;103333.31;5109028;27;99020;-70
2023/02/14 07:18:25;;;;;;;33.65;19.08;;;;;;;11.32;49.52;103337.69;5103650;27;97276;-69
2023/02/14 07:20:51;;;;;;;39.85;20.17;;;;;;;11.65;48.52;103334.22;5112391;27;96949;-70
2023/02/14 07:23:18;;;;;;;34.00;18.35;;;;;;;11.77;48.15;103336.91;5105896;27;98415;-71
2023/02/14 07:25:44;;;;;;;35.22;19.45;;;;;;;11.68;48.29;103336.00;5108044;27;101773;-71
2023/02/14 07:28:11;;;;;;;39.70;19.75;;;;;;;11.62;48.68;103328.06;5107997;27;97492;-72
2023/02/14 07:30:37;;;;;;;33.45;18.50;;;;;;;11.78;48.37;103337.78;5110703;27;97069;-72
2023/02/14 07:33:05;;;;;;;41.95;19.08;;;;;;;11.81;47.92;103338.69;5110186;27;99211;-71
2023/02/14 07:35:31;;;;;;;36.10;18.42;;;;;;;11.81;47.85;103341.34;5108026;27;98792;-71
2023/02/14 07:37:58;;;;;;;36.45;19.42;;;;;;;11.92;47.82;103341.34;5110916;27;96817;-73
2023/02/14 07:40:24;;;;;;;40.63;20.95;;;;;;;12.06;47.82;103339.56;5107758;27;98061;-72
2023/02/14 07:42:55;;;;;;;38.90;19.88;;;;;;;12.00;48.06;103344.88;5111970;27;99125;-72
2023/02/14 07:45:22;;;;;;;36.15;19.95;;;;;;;12.17;47.92;103335.13;5105384;27;99212;-72
2023/02/14 07:47:49;;;;;;;43.33;18.30;;;;;;;12.20;47.77;103332.50;5112400;27;96790;-72
2023/02/14 07:50:17;;;;;;;35.35;18.15;;;;;;;12.19;47.73;103329.84;5104959;27;97097;-72
2023/02/14 07:52:45;;;;;;;40.88;18.92;;;;;;;12.31;47.39;103330.69;5105383;27;98833;-72
2023/02/14 07:55:12;;;;;;;33.70;18.05;;;;;;;12.07;47.69;103322.78;5112350;27;98764;-71
2023/02/14 07:57:38;;;;;;;34.60;17.98;;;;;;;12.43;47.23;103326.25;5107975;27;98657;-71
2023/02/14 08:00:07;;;;;;;30.38;16.48;;;;;;;12.43;46.76;103328.91;5114683;27;97014;-70
2023/02/14 08:02:35;;;;;;;34.13;16.80;;;;;;;12.37;46.70;103327.13;5106258;27;99281;-72
2023/02/14 08:05:02;;;;;;;31.67;18.05;;;;;;;12.72;46.22;103327.06;5114537;27;98222;-70
2023/02/14 08:07:44;;;;;;;37.22;20.38;;;;;;;12.56;46.46;103330.63;5107902;27;96900;-71
2023/02/14 08:10:16;;;;;;;42.53;19.17;;;;;;;12.19;46.78;103330.72;5114510;27;96975;-70
2023/02/14 08:13:02;;;;;;;42.03;19.30;;;;;;;12.58;46.37;103327.09;5104950;27;97558;-70
2023/02/14 08:18:16;;;;;;;30.00;18.02;;;;;;;12.71;46.01;103341.19;5110431;27;97309;-71
2023/02/14 08:20:42;;;;;;;38.97;19.58;;;;;;;12.61;45.79;103329.72;5114083;27;96766;-71
2023/02/14 08:23:11;;;;;;;36.80;19.27;;;;;;;12.77;45.75;103336.75;5116975;27;100599;-72
2023/02/14 08:25:38;;;;;;;35.97;18.75;;;;;;;12.97;45.64;103336.69;5113139;27;99295;-70
2023/02/14 08:28:04;;;;;;;38.72;19.42;;;;;;;12.85;45.90;103344.69;5110377;27;97020;-71
2023/02/14 08:30:31;;;;;;;37.90;17.83;;;;;;;12.85;45.49;103346.47;5107795;27;97529;-71
2023/02/14 08:32:58;;;;;;;38.50;19.42;;;;;;;12.94;45.60;103349.94;5112880;27;99220;-70
2023/02/14 08:35:24;;;;;;;41.97;20.23;;;;;;;12.65;45.81;103354.47;5109852;27;97553;-71
2023/02/14 08:37:51;;;;;;;44.53;21.90;;;;;;;12.62;46.05;103358.00;5108943;27;96854;-70
2023/02/14 08:40:21;;;;;;;39.72;21.02;;;;;;;12.75;45.60;103350.91;5120122;27;96857;-70
2023/02/14 08:42:48;;;;;;;46.30;21.80;;;;;;;13.07;45.03;103356.97;5113607;27;101034;-71
2023/02/14 08:45:14;;;;;;;40.85;20.33;;;;;;;13.06;44.83;103359.66;5110145;27;99338;-70
2023/02/14 08:47:41;;;;;;;53.75;22.35;;;;;;;13.08;45.06;103365.81;5114304;27;97075;-72
2023/02/14 08:50:10;;;;;;;44.08;21.08;;;;;;;13.32;44.28;103362.22;5105668;27;96812;-70
2023/02/14 08:52:38;;;;;;;48.13;21.98;;;;;;;13.31;44.58;103356.00;5114497;27;97780;-71
2023/02/14 08:55:05;;;;;;;52.90;23.45;;;;;;;13.17;44.72;103363.16;5105485;27;98768;-70
2023/02/14 08:57:33;;;;;;;47.47;22.20;;;;;;;13.19;44.35;103364.03;5105531;27;97300;-71
2023/02/14 08:59:59;;;;;;;46.67;21.90;;;;;;;13.41;44.05;103356.81;5111326;27;96824;-70
2023/02/14 09:02:26;;;;;;;40.85;20.48;;;;;;;13.26;44.18;103368.41;5107444;27;99546;-70
2023/02/14 09:04:52;;;;;;;41.60;21.80;;;;;;;13.50;43.94;103362.97;5109824;27;98806;-71
2023/02/14 09:07:19;;;;;;;43.03;20.02;;;;;;;13.37;44.11;103365.72;5108678;27;97070;-72
2023/02/14 09:09:46;;;;;;;44.70;22.35;;;;;;;13.67;43.54;103365.50;5112792;27;97030;-71
2023/02/14 09:12:12;;;;;;;48.30;21.90;;;;;;;13.50;43.64;103365.63;5112286;27;100769;-71
2023/02/14 09:14:42;;;;;;;44.72;22.10;;;;;;;13.68;43.32;103364.63;5112534;27;98922;-71
2023/02/14 09:17:13;;;;;;;43.53;20.55;;;;;;;13.76;43.49;103362.78;5112429;27;97216;-71
2023/02/14 09:19:40;;;;;;;42.25;21.63;;;;;;;13.67;43.64;103365.50;5113712;27;97394;-71
2023/02/14 09:22:09;;;;;;;46.42;21.65;;;;;;;13.53;44.13;103367.38;5105699;27;98868;-71
2023/02/14 09:24:37;;;;;;;48.72;22.52;;;;;;;13.08;44.73;103363.16;5107677;27;99318;-71
2023/02/14 09:27:04;;;;;;;49.53;22.83;;;;;;;13.20;44.68;103372.84;5099928;27;98668;-71
2023/02/14 09:29:30;;;;;;;43.80;22.70;;;;;;;13.33;44.26;103369.25;5107938;27;97387;-71
2023/02/14 09:32:00;;;;;;;41.38;21.90;;;;;;;13.52;44.08;103362.97;5099706;27;98415;-71
2023/02/14 09:34:28;;;;;;;47.30;21.13;;;;;;;13.55;43.95;103361.16;5103049;27;97505;-71
2023/02/14 09:36:54;;;;;;;44.05;22.92;;;;;;;13.30;44.42;103359.53;5108169;27;99122;-70
2023/02/14 09:39:23;;;;;;;40.47;21.52;;;;;;;13.11;44.40;103363.16;5102463;27;97180;-70
2023/02/14 09:42:10;;;;;;;46.55;22.40;;;;;;;13.11;44.78;103364.03;5099734;27;104933;-71
2023/02/14 09:44:38;;;;;;;;;;;;;;;13.62;43.92;103361.13;5112000;27;98787;-70
2023/02/14 09:47:17;;;;;;;53.45;23.23;;;;;;;13.70;43.91;103362.84;5105931;27;96795;-70
2023/02/14 09:49:45;;;;;;;43.20;22.30;;;;;;;13.45;44.23;103370.09;5110987;27;96886;-71
2023/02/14 09:52:16;;;;;;;46.75;23.42;;;;;;;13.47;43.83;103370.94;5112451;27;98959;-72
2023/02/14 09:54:46;;;;;;;46.97;22.88;;;;;;;13.53;43.82;103364.72;5099410;27;99045;-70
2023/02/14 09:57:22;;;;;;;48.55;23.50;;;;;;;13.89;43.38;103368.91;5109738;27;96854;-70
2023/02/14 09:59:55;;;;;;;47.67;22.05;;;;;;;13.92;43.40;103372.41;5107229;27;97125;-71
2023/02/14 10:02:37;;;;;;;39.30;20.83;;;;;;;13.93;42.98;103367.97;5112657;27;98952;-71
2023/02/14 10:05:14;;;;;;;37.63;20.40;;;;;;;13.69;43.32;103370.81;5111250;27;97632;-71
2023/02/14 10:07:55;;;;;;;41.95;21.10;;;;;;;13.45;43.32;103370.09;5114065;27;97285;-71
2023/02/14 10:10:27;;;;;;;38.83;20.98;;;;;;;13.91;42.84;103375.94;5113136;27;96951;-71
2023/02/14 10:12:59;;;;;;;38.53;20.05;;;;;;;13.57;43.48;103367.34;5114167;27;99015;-71
2023/02/14 10:15:28;;;;;;;37.78;20.77;;;;;;;13.81;43.23;103368.94;5113822;27;97791;-70
2023/02/14 10:18:00;;;;;;;40.45;19.77;;;;;;;13.31;43.80;103368.41;5103365;27;97579;-70
2023/02/14 10:20:31;;;;;;;40.85;19.60;;;;;;;13.18;43.86;103369.34;5109369;27;97160;-70
2023/02/14 10:23:04;;;;;;;38.13;20.52;;;;;;;13.52;43.74;103363.81;5112469;27;98855;-70
2023/02/14 10:25:39;;;;;;;40.72;19.30;;;;;;;13.53;43.61;103370.03;5107931;27;98933;-70
2023/02/14 10:28:11;;;;;;;39.95;18.95;;;;;;;13.45;43.72;103361.25;5100484;27;97232;-70
2023/02/14 10:30:39;;;;;;;36.90;19.08;;;;;;;13.55;43.48;103357.63;5114900;27;97200;-70
2023/02/14 10:33:14;;;;;;;36.42;19.27;;;;;;;13.48;43.33;103354.13;5111521;27;99067;-71
2023/02/14 10:36:07;;;;;;;37.33;19.37;;;;;;;13.32;43.87;103363.09;5111419;27;101135;-71
2023/02/14 10:38:42;;;;;;;33.70;18.60;;;;;;;13.18;43.98;103348.13;5112685;27;97148;-72
2023/02/14 10:41:41;;;;;;;38.00;19.90;;;;;;;13.60;43.31;103350.50;5113877;27;96863;-71
2023/02/14 10:44:39;;;;;;;35.45;18.58;;;;;;;13.23;43.42;103341.88;5102294;27;99675;-72
2023/02/14 10:47:19;;;;;;;39.53;19.77;;;;;;;13.18;43.76;103348.13;5110439;27;98902;-73
2023/02/14 10:50:04;;;;;;;34.38;18.55;;;;;;;13.47;43.23;103351.47;5111242;27;97035;-73
2023/02/14 10:52:49;;;;;;;32.13;19.20;;;;;;;13.78;42.90;103353.03;5107310;27;97724;-72
2023/02/14 10:55:22;;;;;;;41.92;19.25;;;;;;;13.65;42.91;103350.47;5110715;27;100146;-72
2023/02/14 10:57:53;;;;;;;36.90;19.23;;;;;;;13.32;43.63;103343.63;5109685;27;97506;-73
2023/02/14 11:00:28;;;;;;;38.00;20.35;;;;;;;13.64;43.33;103343.41;5110760;27;96918;-72
2023/02/14 11:05:55;;;;;;;39.03;20.00;;;;;;;13.33;43.53;103342.69;5094361;27;97435;-71
2023/02/14 11:08:26;;;;;;;37.40;20.25;;;;;;;13.61;43.37;103338.97;5110939;27;100418;-71
2023/02/14 11:10:55;;;;;;;36.38;19.55;;;;;;;13.60;43.34;103341.63;5109126;27;97025;-72
2023/02/14 11:13:34;;;;;;;39.72;20.35;;;;;;;13.46;43.39;103341.72;5116279;27;96719;-71
2023/02/14 11:16:02;;;;;;;39.95;19.02;;;;;;;13.67;43.22;103336.28;5110459;27;102157;-70
2023/02/14 11:18:31;;;;;;;34.53;18.88;;;;;;;13.83;42.43;103337.06;5105469;27;98625;-71
2023/02/14 11:21:08;;;;;;;47.13;22.55;;;;;;;13.85;42.66;103329.94;5112438;27;96792;-73
2023/02/14 11:23:39;;;;;;;38.90;20.42;;;;;;;13.80;43.04;103329.97;5109955;27;96854;-70
2023/02/14 11:26:10;;;;;;;35.72;20.27;;;;;;;13.90;42.50;103334.34;5108333;27;98884;-71
2023/02/14 11:28:49;;;;;;;42.42;21.17;;;;;;;13.70;42.94;103330.94;5102203;27;98763;-71
2023/02/14 11:31:25;;;;;;;39.63;18.77;;;;;;;13.49;43.41;103326.66;5108571;27;97046;-70
2023/02/14 11:33:53;;;;;;;38.08;19.05;;;;;;;13.37;43.76;103332.06;5112961;27;97256;-70
2023/02/14 11:36:21;;;;;;;35.95;20.65;;;;;;;13.33;44.00;103326.75;5108278;27;97749;-72
2023/02/14 11:38:58;;;;;;;38.28;19.98;;;;;;;13.26;44.43;103330.38;5106702;27;98834;-72
2023/02/14 11:41:24;;;;;;;36.63;18.98;;;;;;;13.40;43.77;103328.50;5104794;27;96764;-72
2023/02/14 11:43:52;;;;;;;37.47;19.75;;;;;;;13.15;44.09;103328.66;5111925;27;97203;-70